sensor_id;sensor_type;location;lat;lon;timestamp;pressure;altitude;pressure_sealevel;temperature;humidity
80733;BME280;70130;44.534;18.678;2023-05-31T00:01:11;99094.47;;;14.14;93.12
80733;BME280;70130;44.534;18.678;2023-05-31T00:03:38;99091.94;;;14.05;91.65
80733;BME280;70130;44.534;18.678;2023-05-31T00:06:08;99096.72;;;14.12;92.06
80733;BME280;70130;44.534;18.678;2023-05-31T00:08:34;99091.25;;;14.08;92.71
80733;BME280;70130;44.534;18.678;2023-05-31T00:11:00;99097.50;;;14.12;92.11
80733;BME280;70130;44.534;18.678;2023-05-31T00:13:25;99093.16;;;14.08;92.02
80733;BME280;70130;44.534;18.678;2023-05-31T00:15:51;99096.78;;;14.00;91.40
80733;BME280;70130;44.534;18.678;2023-05-31T00:18:16;99103.53;;;14.06;91.32
80733;BME280;70130;44.534;18.678;2023-05-31T00:20:42;99112.97;;;14.00;91.16
80733;BME280;70130;44.534;18.678;2023-05-31T00:23:07;99100.41;;;13.92;92.08
80733;BME280;70130;44.534;18.678;2023-05-31T00:25:33;99114.09;;;13.99;91.71
80733;BME280;70130;44.534;18.678;2023-05-31T00:27:59;99114.34;;;13.94;91.91
80733;BME280;70130;44.534;18.678;2023-05-31T00:30:24;99110.44;;;13.91;92.38
80733;BME280;70130;44.534;18.678;2023-05-31T00:32:50;99120.88;;;13.93;92.74
80733;BME280;70130;44.534;18.678;2023-05-31T00:35:16;99108.06;;;13.90;92.91
80733;BME280;70130;44.534;18.678;2023-05-31T00:37:42;99112.78;;;13.93;92.92
80733;BME280;70130;44.534;18.678;2023-05-31T00:40:08;99101.09;;;13.89;93.20
80733;BME280;70130;44.534;18.678;2023-05-31T00:42:33;99104.50;;;13.86;93.28
80733;BME280;70130;44.534;18.678;2023-05-31T00:44:59;99103.41;;;13.74;92.55
80733;BME280;70130;44.534;18.678;2023-05-31T00:47:25;99089.91;;;13.74;92.81
80733;BME280;70130;44.534;18.678;2023-05-31T00:49:53;99111.69;;;13.81;92.91
80733;BME280;70130;44.534;18.678;2023-05-31T00:52:19;99097.75;;;13.79;92.77
80733;BME280;70130;44.534;18.678;2023-05-31T00:54:45;99110.56;;;13.82;93.14
80733;BME280;70130;44.534;18.678;2023-05-31T00:57:11;99110.78;;;13.77;93.28
80733;BME280;70130;44.534;18.678;2023-05-31T00:59:37;99103.06;;;13.76;93.45
80733;BME280;70130;44.534;18.678;2023-05-31T01:02:03;99096.00;;;13.71;93.45
80733;BME280;70130;44.534;18.678;2023-05-31T01:04:32;99106.97;;;13.78;93.26
80733;BME280;70130;44.534;18.678;2023-05-31T01:06:59;99104.97;;;13.75;92.91
80733;BME280;70130;44.534;18.678;2023-05-31T01:09:28;99108.56;;;13.79;93.19
80733;BME280;70130;44.534;18.678;2023-05-31T01:11:57;99110.13;;;13.80;93.02
80733;BME280;70130;44.534;18.678;2023-05-31T01:17:45;99103.06;;;13.76;92.77
80733;BME280;70130;44.534;18.678;2023-05-31T01:20:16;99107.66;;;13.75;92.87
80733;BME280;70130;44.534;18.678;2023-05-31T01:28:16;99106.97;;;13.78;92.63
80733;BME280;70130;44.534;18.678;2023-05-31T01:30:44;99102.38;;;13.79;92.72
80733;BME280;70130;44.534;18.678;2023-05-31T01:33:12;99104.28;;;13.78;92.65
80733;BME280;70130;44.534;18.678;2023-05-31T01:35:38;99108.09;;;13.77;92.71
80733;BME280;70130;44.534;18.678;2023-05-31T01:38:04;99117.53;;;13.83;93.02
80733;BME280;70130;44.534;18.678;2023-05-31T01:40:32;99113.25;;;13.82;93.01
80733;BME280;70130;44.534;18.678;2023-05-31T01:42:59;99112.28;;;13.75;92.35
80733;BME280;70130;44.534;18.678;2023-05-31T01:45:25;99122.03;;;13.79;91.99
80733;BME280;70130;44.534;18.678;2023-05-31T01:47:55;99116.56;;;13.76;92.40
80733;BME280;70130;44.534;18.678;2023-05-31T01:50:21;99117.31;;;13.76;92.75
80733;BME280;70130;44.534;18.678;2023-05-31T01:52:48;99115.75;;;13.75;92.29
80733;BME280;70130;44.534;18.678;2023-05-31T01:55:14;99116.09;;;13.74;92.65
80733;BME280;70130;44.534;18.678;2023-05-31T01:57:42;99121.25;;;13.79;92.83
80733;BME280;70130;44.534;18.678;2023-05-31T02:00:09;99120.91;;;13.80;92.07
80733;BME280;70130;44.534;18.678;2023-05-31T02:02:44;99117.31;;;13.76;92.21
80733;BME280;70130;44.534;18.678;2023-05-31T02:05:12;99121.25;;;13.79;91.75
80733;BME280;70130;44.534;18.678;2023-05-31T02:07:42;99121.47;;;13.74;92.60
80733;BME280;70130;44.534;18.678;2023-05-31T02:10:09;99122.03;;;13.79;92.96
80733;BME280;70130;44.534;18.678;2023-05-31T02:12:37;99112.94;;;13.72;92.67
80733;BME280;70130;44.534;18.678;2023-05-31T02:15:04;99118.56;;;13.79;92.87
80733;BME280;70130;44.534;18.678;2023-05-31T02:17:41;99111.41;;;13.71;92.93
80733;BME280;70130;44.534;18.678;2023-05-31T02:20:13;99122.28;;;13.74;92.85
80733;BME280;70130;44.534;18.678;2023-05-31T02:22:44;99119.13;;;13.72;92.78
80733;BME280;70130;44.534;18.678;2023-05-31T02:25:11;99108.34;;;13.72;92.50
80733;BME280;70130;44.534;18.678;2023-05-31T02:27:39;99118.00;;;13.73;92.11
80733;BME280;70130;44.534;18.678;2023-05-31T02:30:07;99110.38;;;13.75;92.10
80733;BME280;70130;44.534;18.678;2023-05-31T02:32:35;99120.78;;;13.77;92.62
80733;BME280;70130;44.534;18.678;2023-05-31T02:35:07;99127.66;;;13.74;92.43
80733;BME280;70130;44.534;18.678;2023-05-31T02:37:34;99115.31;;;13.73;92.72
80733;BME280;70130;44.534;18.678;2023-05-31T02:40:02;99106.56;;;13.64;92.61
80733;BME280;70130;44.534;18.678;2023-05-31T02:42:35;99124.97;;;13.74;92.55
80733;BME280;70130;44.534;18.678;2023-05-31T02:45:02;99127.09;;;13.81;92.56
80733;BME280;70130;44.534;18.678;2023-05-31T02:47:27;99127.75;;;13.78;92.46
80733;BME280;70130;44.534;18.678;2023-05-31T02:49:53;99121.16;;;13.75;91.81
80733;BME280;70130;44.534;18.678;2023-05-31T02:52:22;99127.53;;;13.83;92.23
80733;BME280;70130;44.534;18.678;2023-05-31T02:55:11;99130.91;;;13.80;92.46
80733;BME280;70130;44.534;18.678;2023-05-31T02:57:54;99125.84;;;13.78;92.23
80733;BME280;70130;44.534;18.678;2023-05-31T03:00:20;99124.28;;;13.77;92.03
80733;BME280;70130;44.534;18.678;2023-05-31T03:02:46;99131.56;;;13.77;92.20
80733;BME280;70130;44.534;18.678;2023-05-31T03:05:38;99126.19;;;13.77;91.70
80733;BME280;70130;44.534;18.678;2023-05-31T03:08:04;99130.78;;;13.76;91.82
80733;BME280;70130;44.534;18.678;2023-05-31T03:10:30;99126.53;;;13.75;91.92
80733;BME280;70130;44.534;18.678;2023-05-31T03:12:56;99124.50;;;13.72;92.07
80733;BME280;70130;44.534;18.678;2023-05-31T03:15:23;99124.88;;;13.71;92.55
80733;BME280;70130;44.534;18.678;2023-05-31T03:17:49;99125.41;;;13.76;92.62
80733;BME280;70130;44.534;18.678;2023-05-31T03:20:15;99125.84;;;13.78;92.69
80733;BME280;70130;44.534;18.678;2023-05-31T03:22:41;99139.09;;;13.83;92.92
80733;BME280;70130;44.534;18.678;2023-05-31T03:25:08;99133.25;;;13.81;93.11
80733;BME280;70130;44.534;18.678;2023-05-31T03:27:34;99132.81;;;13.79;92.51
80733;BME280;70130;44.534;18.678;2023-05-31T03:29:59;99129.00;;;13.80;92.05
80733;BME280;70130;44.534;18.678;2023-05-31T03:32:25;99140.22;;;13.82;92.27
80733;BME280;70130;44.534;18.678;2023-05-31T03:34:51;99144.97;;;13.86;92.55
80733;BME280;70130;44.534;18.678;2023-05-31T03:37:17;99150.13;;;13.78;92.62
80733;BME280;70130;44.534;18.678;2023-05-31T03:39:51;99141.56;;;13.76;92.52
80733;BME280;70130;44.534;18.678;2023-05-31T03:42:23;99138.47;;;13.74;92.63
80733;BME280;70130;44.534;18.678;2023-05-31T03:44:50;99152.03;;;13.78;91.88
80733;BME280;70130;44.534;18.678;2023-05-31T03:47:16;99157.75;;;13.76;92.50
80733;BME280;70130;44.534;18.678;2023-05-31T03:49:41;99150.47;;;13.77;92.59
80733;BME280;70130;44.534;18.678;2023-05-31T03:52:08;99154.50;;;13.83;93.04
80733;BME280;70130;44.534;18.678;2023-05-31T03:54:39;99142.28;;;13.73;93.04
80733;BME280;70130;44.534;18.678;2023-05-31T03:57:05;99157.88;;;13.80;92.61
80733;BME280;70130;44.534;18.678;2023-05-31T03:59:31;99164.84;;;13.81;92.85
80733;BME280;70130;44.534;18.678;2023-05-31T04:01:57;99149.34;;;13.78;93.00
80733;BME280;70130;44.534;18.678;2023-05-31T04:04:24;99170.03;;;13.86;92.85
80733;BME280;70130;44.534;18.678;2023-05-31T04:06:54;99156.41;;;13.82;92.90
80733;BME280;70130;44.534;18.678;2023-05-31T04:09:20;99174.81;;;13.93;92.65
80733;BME280;70130;44.534;18.678;2023-05-31T04:11:46;99165.16;;;13.92;92.48
80733;BME280;70130;44.534;18.678;2023-05-31T04:14:12;99177.63;;;13.96;92.67
80733;BME280;70130;44.534;18.678;2023-05-31T04:16:38;99172.22;;;13.96;92.71
80733;BME280;70130;44.534;18.678;2023-05-31T04:19:04;99176.72;;;14.04;92.67
80733;BME280;70130;44.534;18.678;2023-05-31T04:21:30;99178.63;;;14.04;92.75
80733;BME280;70130;44.534;18.678;2023-05-31T04:23:57;99175.13;;;14.03;91.74
80733;BME280;70130;44.534;18.678;2023-05-31T04:26:22;99182.66;;;14.10;92.00
80733;BME280;70130;44.534;18.678;2023-05-31T04:28:48;99181.97;;;14.13;92.69
80733;BME280;70130;44.534;18.678;2023-05-31T04:31:21;99182.66;;;14.10;91.81
80733;BME280;70130;44.534;18.678;2023-05-31T04:33:56;99170.75;;;14.11;91.01
80733;BME280;70130;44.534;18.678;2023-05-31T04:36:24;99180.59;;;14.19;91.06
80733;BME280;70130;44.534;18.678;2023-05-31T04:38:50;99176.13;;;14.11;91.17
80733;BME280;70130;44.534;18.678;2023-05-31T04:41:22;99183.97;;;14.16;91.90
80733;BME280;70130;44.534;18.678;2023-05-31T04:43:52;99183.22;;;14.15;90.99
80733;BME280;70130;44.534;18.678;2023-05-31T04:46:19;99180.38;;;14.12;91.32
80733;BME280;70130;44.534;18.678;2023-05-31T04:48:48;99192.06;;;14.16;90.57
80733;BME280;70130;44.534;18.678;2023-05-31T04:51:17;99192.19;;;14.19;91.03
80733;BME280;70130;44.534;18.678;2023-05-31T04:53:44;99183.53;;;14.14;89.88
80733;BME280;70130;44.534;18.678;2023-05-31T04:56:11;99174.19;;;14.11;91.42
80733;BME280;70130;44.534;18.678;2023-05-31T04:58:38;99184.31;;;14.14;90.82
80733;BME280;70130;44.534;18.678;2023-05-31T05:01:04;99189.91;;;14.21;91.21
80733;BME280;70130;44.534;18.678;2023-05-31T05:03:39;99200.47;;;14.26;91.18
80733;BME280;70130;44.534;18.678;2023-05-31T05:06:15;99189.34;;;14.28;91.61
80733;BME280;70130;44.534;18.678;2023-05-31T05:08:46;99193.53;;;14.25;91.01
80733;BME280;70130;44.534;18.678;2023-05-31T05:11:13;99192.81;;;14.28;90.73
80733;BME280;70130;44.534;18.678;2023-05-31T05:13:39;99197.97;;;14.34;90.67
80733;BME280;70130;44.534;18.678;2023-05-31T05:16:05;99191.00;;;14.33;89.86
80733;BME280;70130;44.534;18.678;2023-05-31T05:18:32;99200.34;;;14.35;90.36
80733;BME280;70130;44.534;18.678;2023-05-31T05:20:57;99196.66;;;14.40;90.07
80733;BME280;70130;44.534;18.678;2023-05-31T05:23:26;99203.50;;;14.37;89.34
80733;BME280;70130;44.534;18.678;2023-05-31T05:25:53;99196.53;;;14.36;90.28
80733;BME280;70130;44.534;18.678;2023-05-31T05:28:19;99194.16;;;14.35;90.46
80733;BME280;70130;44.534;18.678;2023-05-31T05:30:45;99199.22;;;14.36;90.40
80733;BME280;70130;44.534;18.678;2023-05-31T05:33:11;99191.13;;;14.36;90.13
80733;BME280;70130;44.534;18.678;2023-05-31T05:35:37;99197.84;;;14.42;89.93
80733;BME280;70130;44.534;18.678;2023-05-31T05:38:02;99206.03;;;14.46;90.22
80733;BME280;70130;44.534;18.678;2023-05-31T05:40:28;99213.91;;;14.51;89.83
80733;BME280;70130;44.534;18.678;2023-05-31T05:42:56;99215.69;;;14.59;90.62
80733;BME280;70130;44.534;18.678;2023-05-31T05:45:22;99221.19;;;14.62;90.01
80733;BME280;70130;44.534;18.678;2023-05-31T05:47:47;99221.09;;;14.59;89.96
80733;BME280;70130;44.534;18.678;2023-05-31T05:50:16;99221.38;;;14.69;89.30
80733;BME280;70130;44.534;18.678;2023-05-31T05:52:42;99212.63;;;14.60;88.07
80733;BME280;70130;44.534;18.678;2023-05-31T05:55:08;99225.63;;;14.70;87.91
80733;BME280;70130;44.534;18.678;2023-05-31T05:57:34;99215.03;;;14.78;89.17
80733;BME280;70130;44.534;18.678;2023-05-31T06:00:17;99211.63;;;14.81;90.39
80733;BME280;70130;44.534;18.678;2023-05-31T06:02:45;99222.38;;;14.93;89.32
80733;BME280;70130;44.534;18.678;2023-05-31T06:05:11;99228.31;;;14.98;89.72
80733;BME280;70130;44.534;18.678;2023-05-31T06:07:38;99222.53;;;15.00;90.12
80733;BME280;70130;44.534;18.678;2023-05-31T06:10:04;99226.75;;;15.13;88.79
80733;BME280;70130;44.534;18.678;2023-05-31T06:12:30;99228.09;;;15.19;86.57
80733;BME280;70130;44.534;18.678;2023-05-31T06:14:58;99228.25;;;15.26;86.81
80733;BME280;70130;44.534;18.678;2023-05-31T06:17:24;99237.41;;;15.37;88.49
80733;BME280;70130;44.534;18.678;2023-05-31T06:19:49;99233.22;;;15.40;87.14
80733;BME280;70130;44.534;18.678;2023-05-31T06:22:15;99243.34;;;15.43;87.74
80733;BME280;70130;44.534;18.678;2023-05-31T06:24:42;99231.81;;;15.30;86.83
80733;BME280;70130;44.534;18.678;2023-05-31T06:27:08;99254.31;;;15.34;86.63
80733;BME280;70130;44.534;18.678;2023-05-31T06:29:38;99247.78;;;15.35;85.77
80733;BME280;70130;44.534;18.678;2023-05-31T06:32:08;99246.19;;;15.34;87.22
80733;BME280;70130;44.534;18.678;2023-05-31T06:34:37;99242.09;;;15.25;85.79
80733;BME280;70130;44.534;18.678;2023-05-31T06:37:03;99248.47;;;15.32;86.42
80733;BME280;70130;44.534;18.678;2023-05-31T06:39:29;99251.72;;;15.38;87.03
80733;BME280;70130;44.534;18.678;2023-05-31T06:41:55;99247.78;;;15.35;87.11
80733;BME280;70130;44.534;18.678;2023-05-31T06:44:42;99249.81;;;15.38;86.25
80733;BME280;70130;44.534;18.678;2023-05-31T06:47:16;99249.44;;;15.40;87.01
80733;BME280;70130;44.534;18.678;2023-05-31T06:50:16;99242.56;;;15.42;86.45
80733;BME280;70130;44.534;18.678;2023-05-31T06:52:45;99253.81;;;15.60;86.26
80733;BME280;70130;44.534;18.678;2023-05-31T06:55:30;99236.97;;;15.67;86.53
80733;BME280;70130;44.534;18.678;2023-05-31T06:57:56;99238.16;;;15.85;84.81
80733;BME280;70130;44.534;18.678;2023-05-31T07:00:22;99248.19;;;16.00;85.16
80733;BME280;70130;44.534;18.678;2023-05-31T07:02:47;99248.84;;;16.13;84.54
80733;BME280;70130;44.534;18.678;2023-05-31T07:05:13;99239.50;;;16.10;84.47
80733;BME280;70130;44.534;18.678;2023-05-31T07:07:39;99246.63;;;16.18;85.05
80733;BME280;70130;44.534;18.678;2023-05-31T07:10:05;99240.34;;;16.14;84.17
80733;BME280;70130;44.534;18.678;2023-05-31T07:12:31;99247.50;;;16.22;81.45
80733;BME280;70130;44.534;18.678;2023-05-31T07:14:57;99248.50;;;16.33;82.96
80733;BME280;70130;44.534;18.678;2023-05-31T07:17:23;99254.31;;;16.51;82.14
80733;BME280;70130;44.534;18.678;2023-05-31T07:19:49;99248.09;;;16.51;82.08
80733;BME280;70130;44.534;18.678;2023-05-31T07:22:16;99246.84;;;16.64;82.10
80733;BME280;70130;44.534;18.678;2023-05-31T07:24:43;99247.69;;;16.68;80.61
80733;BME280;70130;44.534;18.678;2023-05-31T07:27:09;99235.50;;;16.58;80.81
80733;BME280;70130;44.534;18.678;2023-05-31T07:29:36;99247.25;;;16.85;79.93
80733;BME280;70130;44.534;18.678;2023-05-31T07:32:02;99246.59;;;16.92;79.49
80733;BME280;70130;44.534;18.678;2023-05-31T07:34:27;99250.72;;;17.05;79.34
80733;BME280;70130;44.534;18.678;2023-05-31T07:36:53;99237.91;;;16.82;78.04
80733;BME280;70130;44.534;18.678;2023-05-31T07:39:21;99244.69;;;16.92;79.02
80733;BME280;70130;44.534;18.678;2023-05-31T07:41:47;99245.22;;;17.01;78.17
80733;BME280;70130;44.534;18.678;2023-05-31T07:44:12;99251.91;;;17.07;77.74
80733;BME280;70130;44.534;18.678;2023-05-31T07:46:38;99248.91;;;17.35;77.42
80733;BME280;70130;44.534;18.678;2023-05-31T07:49:04;99246.78;;;17.48;76.02
80733;BME280;70130;44.534;18.678;2023-05-31T07:51:30;99252.84;;;17.60;76.13
80733;BME280;70130;44.534;18.678;2023-05-31T07:53:57;99240.28;;;17.75;74.50
80733;BME280;70130;44.534;18.678;2023-05-31T07:56:23;99254.84;;;17.90;76.17
80733;BME280;70130;44.534;18.678;2023-05-31T07:58:49;99244.94;;;17.75;75.73
80733;BME280;70130;44.534;18.678;2023-05-31T08:01:15;99252.94;;;17.90;76.56
80733;BME280;70130;44.534;18.678;2023-05-31T08:03:41;99248.78;;;17.74;76.16
80733;BME280;70130;44.534;18.678;2023-05-31T08:06:07;99242.16;;;17.71;74.74
80733;BME280;70130;44.534;18.678;2023-05-31T08:12:23;99245.75;;;18.05;71.50
80733;BME280;70130;44.534;18.678;2023-05-31T08:14:48;99246.00;;;17.96;71.52
80733;BME280;70130;44.534;18.678;2023-05-31T08:17:14;99246.59;;;18.09;74.30
80733;BME280;70130;44.534;18.678;2023-05-31T08:19:40;99241.63;;;18.15;73.36
80733;BME280;70130;44.534;18.678;2023-05-31T08:22:05;99251.44;;;18.23;73.76
80733;BME280;70130;44.534;18.678;2023-05-31T08:24:31;99244.38;;;18.18;71.56
80733;BME280;70130;44.534;18.678;2023-05-31T08:26:56;99220.25;;;18.13;72.17
80733;BME280;70130;44.534;18.678;2023-05-31T08:29:23;99243.34;;;17.74;73.87
80733;BME280;70130;44.534;18.678;2023-05-31T08:31:49;99234.22;;;17.59;75.15
80733;BME280;70130;44.534;18.678;2023-05-31T08:34:14;99241.75;;;17.69;75.22
80733;BME280;70130;44.534;18.678;2023-05-31T08:36:40;99241.44;;;17.74;75.22
80733;BME280;70130;44.534;18.678;2023-05-31T08:39:07;99238.50;;;17.86;73.68
80733;BME280;70130;44.534;18.678;2023-05-31T08:41:46;99244.97;;;18.04;73.61
80733;BME280;70130;44.534;18.678;2023-05-31T08:44:14;99242.34;;;18.11;72.58
80733;BME280;70130;44.534;18.678;2023-05-31T08:46:41;99229.69;;;17.93;73.52
80733;BME280;70130;44.534;18.678;2023-05-31T08:49:11;99232.19;;;18.05;72.34
80733;BME280;70130;44.534;18.678;2023-05-31T08:51:39;99247.09;;;18.18;69.96
80733;BME280;70130;44.534;18.678;2023-05-31T08:54:06;99243.25;;;18.19;69.61
80733;BME280;70130;44.534;18.678;2023-05-31T08:56:32;99241.00;;;18.25;71.23
80733;BME280;70130;44.534;18.678;2023-05-31T08:58:58;99248.56;;;18.42;67.71
80733;BME280;70130;44.534;18.678;2023-05-31T09:01:25;99246.19;;;18.67;67.23
80733;BME280;70130;44.534;18.678;2023-05-31T09:03:53;99232.47;;;18.89;66.16
80733;BME280;70130;44.534;18.678;2023-05-31T09:06:19;99236.34;;;18.88;65.93
80733;BME280;70130;44.534;18.678;2023-05-31T09:08:44;99240.50;;;18.79;68.23
80733;BME280;70130;44.534;18.678;2023-05-31T09:11:10;99244.94;;;18.94;67.44
80733;BME280;70130;44.534;18.678;2023-05-31T09:13:37;99245.09;;;19.12;67.24
80733;BME280;70130;44.534;18.678;2023-05-31T09:16:03;99240.56;;;19.23;69.04
80733;BME280;70130;44.534;18.678;2023-05-31T09:18:36;99237.59;;;19.42;67.68
80733;BME280;70130;44.534;18.678;2023-05-31T09:21:10;99235.38;;;19.51;67.15
80733;BME280;70130;44.534;18.678;2023-05-31T09:23:36;99220.50;;;19.41;66.68
80733;BME280;70130;44.534;18.678;2023-05-31T09:26:06;99229.22;;;19.58;65.71
80733;BME280;70130;44.534;18.678;2023-05-31T09:28:32;99238.56;;;19.60;65.71
80733;BME280;70130;44.534;18.678;2023-05-31T09:31:04;99232.47;;;19.77;66.67
80733;BME280;70130;44.534;18.678;2023-05-31T09:33:41;99234.84;;;19.86;65.97
80733;BME280;70130;44.534;18.678;2023-05-31T09:36:08;99240.72;;;19.92;66.93
80733;BME280;70130;44.534;18.678;2023-05-31T09:38:35;99221.69;;;19.99;64.67
80733;BME280;70130;44.534;18.678;2023-05-31T09:41:22;99215.63;;;20.26;64.70
80733;BME280;70130;44.534;18.678;2023-05-31T09:43:49;99216.50;;;20.45;64.43
80733;BME280;70130;44.534;18.678;2023-05-31T09:46:18;99222.72;;;20.45;63.31
80733;BME280;70130;44.534;18.678;2023-05-31T09:48:45;99215.78;;;20.73;61.49
80733;BME280;70130;44.534;18.678;2023-05-31T09:51:24;99221.28;;;20.76;62.18
80733;BME280;70130;44.534;18.678;2023-05-31T09:53:50;99214.31;;;20.96;62.22
80733;BME280;70130;44.534;18.678;2023-05-31T09:56:22;99213.16;;;21.01;61.37
80733;BME280;70130;44.534;18.678;2023-05-31T09:58:49;99217.47;;;21.23;60.30
80733;BME280;70130;44.534;18.678;2023-05-31T10:01:16;99217.88;;;21.29;59.53
80733;BME280;70130;44.534;18.678;2023-05-31T10:03:43;99210.41;;;20.90;58.89
80733;BME280;70130;44.534;18.678;2023-05-31T10:06:10;99203.34;;;20.79;62.34
80733;BME280;70130;44.534;18.678;2023-05-31T10:08:37;99203.78;;;20.91;59.73
80733;BME280;70130;44.534;18.678;2023-05-31T10:11:04;99213.53;;;20.96;60.18
80733;BME280;70130;44.534;18.678;2023-05-31T10:13:55;99200.28;;;20.91;62.14
80733;BME280;70130;44.534;18.678;2023-05-31T10:16:26;99202.59;;;20.85;59.12
80733;BME280;70130;44.534;18.678;2023-05-31T10:18:53;99197.13;;;20.78;60.81
80733;BME280;70130;44.534;18.678;2023-05-31T10:21:24;99205.66;;;20.73;59.29
80733;BME280;70130;44.534;18.678;2023-05-31T10:24:07;99205.66;;;20.69;61.07
80733;BME280;70130;44.534;18.678;2023-05-31T10:26:59;99204.88;;;20.62;60.96
80733;BME280;70130;44.534;18.678;2023-05-31T10:29:33;99196.25;;;20.49;61.42
80733;BME280;70130;44.534;18.678;2023-05-31T10:32:27;99198.19;;;20.49;62.09
80733;BME280;70130;44.534;18.678;2023-05-31T10:34:53;99201.28;;;20.44;63.72
80733;BME280;70130;44.534;18.678;2023-05-31T10:37:21;99198.56;;;20.37;61.91
80733;BME280;70130;44.534;18.678;2023-05-31T10:45:20;99204.72;;;20.26;63.45
80733;BME280;70130;44.534;18.678;2023-05-31T10:47:57;99187.59;;;20.26;64.53
80733;BME280;70130;44.534;18.678;2023-05-31T10:50:24;99184.53;;;20.31;63.45
80733;BME280;70130;44.534;18.678;2023-05-31T10:52:51;99184.94;;;20.44;62.62
80733;BME280;70130;44.534;18.678;2023-05-31T10:55:18;99188.81;;;20.39;61.81
80733;BME280;70130;44.534;18.678;2023-05-31T10:57:57;99189.66;;;20.57;61.78
80733;BME280;70130;44.534;18.678;2023-05-31T11:00:23;99185.41;;;20.63;62.27
80733;BME280;70130;44.534;18.678;2023-05-31T11:02:51;99181.16;;;20.84;61.58
80733;BME280;70130;44.534;18.678;2023-05-31T11:05:25;99183.13;;;21.01;61.63
80733;BME280;70130;44.534;18.678;2023-05-31T11:07:54;99180.03;;;21.17;60.62
80733;BME280;70130;44.534;18.678;2023-05-31T11:10:30;99169.50;;;21.43;59.16
80733;BME280;70130;44.534;18.678;2023-05-31T11:13:03;99182.00;;;21.30;61.11
80733;BME280;70130;44.534;18.678;2023-05-31T11:15:43;99169.53;;;21.40;61.14
80733;BME280;70130;44.534;18.678;2023-05-31T11:18:16;99171.47;;;21.22;61.29
80733;BME280;70130;44.534;18.678;2023-05-31T11:20:49;99156.66;;;21.26;59.15
80733;BME280;70130;44.534;18.678;2023-05-31T11:23:25;99159.00;;;21.28;59.96
80733;BME280;70130;44.534;18.678;2023-05-31T11:26:16;99154.72;;;21.30;59.64
80733;BME280;70130;44.534;18.678;2023-05-31T11:31:56;99152.66;;;21.77;58.85
80733;BME280;70130;44.534;18.678;2023-05-31T11:34:53;99153.44;;;21.88;57.55
80733;BME280;70130;44.534;18.678;2023-05-31T11:37:20;99142.84;;;22.08;57.60
80733;BME280;70130;44.534;18.678;2023-05-31T11:39:49;99135.75;;;22.21;55.81
80733;BME280;70130;44.534;18.678;2023-05-31T11:42:15;99129.03;;;22.39;57.72
80733;BME280;70130;44.534;18.678;2023-05-31T11:44:51;99139.59;;;22.30;55.34
80733;BME280;70130;44.534;18.678;2023-05-31T11:47:19;99130.31;;;22.17;54.00
80733;BME280;70130;44.534;18.678;2023-05-31T11:49:45;99135.34;;;22.29;53.90
80733;BME280;70130;44.534;18.678;2023-05-31T11:55:58;99139.88;;;22.57;55.98
80733;BME280;70130;44.534;18.678;2023-05-31T11:58:25;99122.38;;;22.40;53.98
80733;BME280;70130;44.534;18.678;2023-05-31T12:00:51;99132.22;;;22.27;57.02
80733;BME280;70130;44.534;18.678;2023-05-31T12:03:16;99133.47;;;22.12;57.61
80733;BME280;70130;44.534;18.678;2023-05-31T12:05:49;99119.50;;;21.71;57.00
80733;BME280;70130;44.534;18.678;2023-05-31T12:08:16;99133.22;;;21.64;59.88
80733;BME280;70130;44.534;18.678;2023-05-31T12:10:41;99119.63;;;21.36;60.60
80733;BME280;70130;44.534;18.678;2023-05-31T12:13:07;99124.31;;;21.14;60.61
80733;BME280;70130;44.534;18.678;2023-05-31T12:15:33;99127.00;;;21.46;59.16
80733;BME280;70130;44.534;18.678;2023-05-31T12:17:59;99124.97;;;21.71;57.28
80733;BME280;70130;44.534;18.678;2023-05-31T12:20:28;99107.03;;;21.74;57.19
80733;BME280;70130;44.534;18.678;2023-05-31T12:23:10;99112.00;;;22.14;58.22
80733;BME280;70130;44.534;18.678;2023-05-31T12:25:36;99113.47;;;22.29;58.89
80733;BME280;70130;44.534;18.678;2023-05-31T12:28:02;99124.44;;;22.15;56.26
80733;BME280;70130;44.534;18.678;2023-05-31T12:30:28;99114.19;;;22.37;57.14
80733;BME280;70130;44.534;18.678;2023-05-31T12:32:57;99118.69;;;22.72;56.96
80733;BME280;70130;44.534;18.678;2023-05-31T12:35:23;99112.28;;;22.93;57.45
80733;BME280;70130;44.534;18.678;2023-05-31T12:37:50;99114.66;;;22.91;55.81
80733;BME280;70130;44.534;18.678;2023-05-31T12:40:16;99102.38;;;23.09;54.56
80733;BME280;70130;44.534;18.678;2023-05-31T12:42:46;99103.09;;;23.17;55.38
80733;BME280;70130;44.534;18.678;2023-05-31T12:45:11;99103.75;;;22.87;53.82
80733;BME280;70130;44.534;18.678;2023-05-31T12:47:37;99096.97;;;22.47;55.73
80733;BME280;70130;44.534;18.678;2023-05-31T12:50:07;99100.16;;;22.31;57.32
80733;BME280;70130;44.534;18.678;2023-05-31T12:52:34;99097.91;;;22.16;57.13
80733;BME280;70130;44.534;18.678;2023-05-31T12:55:00;99092.38;;;22.26;58.56
80733;BME280;70130;44.534;18.678;2023-05-31T13:04:58;99073.38;;;22.02;59.22
80733;BME280;70130;44.534;18.678;2023-05-31T13:07:24;99071.44;;;21.91;59.31
80733;BME280;70130;44.534;18.678;2023-05-31T13:09:49;99080.78;;;22.01;58.33
80733;BME280;70130;44.534;18.678;2023-05-31T13:12:15;99077.75;;;21.78;59.66
80733;BME280;70130;44.534;18.678;2023-05-31T13:14:40;99081.69;;;21.70;58.43
80733;BME280;70130;44.534;18.678;2023-05-31T13:17:06;99076.28;;;21.52;58.90
80733;BME280;70130;44.534;18.678;2023-05-31T13:19:32;99069.66;;;21.42;58.04
80733;BME280;70130;44.534;18.678;2023-05-31T13:21:58;99067.31;;;21.48;57.44
80733;BME280;70130;44.534;18.678;2023-05-31T13:24:24;99064.97;;;21.53;57.83
80733;BME280;70130;44.534;18.678;2023-05-31T13:26:49;99072.41;;;21.46;58.93
80733;BME280;70130;44.534;18.678;2023-05-31T13:29:15;99072.06;;;21.23;59.33